createdAt,value
2022-10-25T00:01:28.992Z,15.88
2022-10-25T00:06:31.347Z,15.80
2022-10-25T00:11:34.661Z,15.74
2022-10-25T00:16:38.051Z,15.74
2022-10-25T00:21:40.577Z,15.88
2022-10-25T00:26:43.475Z,15.77
2022-10-25T00:31:46.570Z,15.75
2022-10-25T00:36:48.725Z,15.80
2022-10-25T00:41:50.848Z,15.78
2022-10-25T00:46:53.995Z,15.71
2022-10-25T00:51:57.952Z,15.71
2022-10-25T00:57:04.039Z,15.72
2022-10-25T01:02:08.042Z,15.64
2022-10-25T01:07:10.219Z,15.67
2022-10-25T01:12:12.420Z,15.71
2022-10-25T01:17:15.371Z,15.71
2022-10-25T01:22:29.403Z,15.68
2022-10-25T01:27:52.154Z,15.67
2022-10-25T01:32:54.468Z,15.68
2022-10-25T01:38:02.989Z,15.55
2022-10-25T01:43:07.805Z,15.57
2022-10-25T01:48:14.450Z,15.60
2022-10-25T01:53:17.556Z,15.57
2022-10-25T01:58:34.778Z,15.52
2022-10-25T02:03:45.640Z,15.45
2022-10-25T02:08:51.979Z,15.44
2022-10-25T02:14:13.054Z,15.46
2022-10-25T02:19:24.074Z,15.45
2022-10-25T02:30:48.016Z,15.42
2022-10-25T02:36:09.105Z,15.37
2022-10-25T02:41:12.420Z,15.39
2022-10-25T02:46:16.359Z,15.46
2022-10-25T02:51:18.559Z,15.41
2022-10-25T02:56:21.803Z,15.48
2022-10-25T03:01:25.787Z,15.38
2022-10-25T03:06:28.079Z,15.33
2022-10-25T03:11:30.264Z,15.30
2022-10-25T03:16:32.430Z,15.35
2022-10-25T03:21:37.568Z,15.25
2022-10-25T03:26:42.987Z,15.35
2022-10-25T03:31:46.009Z,15.32
2022-10-25T03:36:48.137Z,15.15
2022-10-25T03:41:50.687Z,15.12
2022-10-25T03:46:53.528Z,15.24
2022-10-25T03:52:40.454Z,15.22
2022-10-25T03:57:42.594Z,15.16
2022-10-25T04:02:44.827Z,15.11
2022-10-25T04:07:47.362Z,15.07
2022-10-25T04:17:57.030Z,15.08
2022-10-25T04:22:59.205Z,15.08
2022-10-25T04:28:02.080Z,15.13
2022-10-25T04:33:04.342Z,15.07
2022-10-25T04:38:06.646Z,15.09
2022-10-25T04:43:09.476Z,15.08
2022-10-25T04:48:12.501Z,15.10
2022-10-25T04:53:14.728Z,15.00
2022-10-25T04:58:17.516Z,15.14
2022-10-25T05:03:20.056Z,15.10
2022-10-25T05:08:23.071Z,15.02
2022-10-25T05:13:25.301Z,15.02
2022-10-25T05:18:28.589Z,15.08
2022-10-25T05:23:30.946Z,15.10
2022-10-25T05:28:35.245Z,15.16
2022-10-25T05:33:37.498Z,15.10
2022-10-25T05:38:40.622Z,15.13
2022-10-25T05:43:43.315Z,15.18
2022-10-25T05:48:48.629Z,15.32
2022-10-25T06:00:13.108Z,15.55
2022-10-25T06:05:16.173Z,15.55
2022-10-25T06:16:41.500Z,16.07
2022-10-25T06:21:46.945Z,16.16
2022-10-25T06:26:51.870Z,16.35
2022-10-25T06:31:57.178Z,16.52
2022-10-25T06:57:43.311Z,18.12
2022-10-25T07:03:06.060Z,18.71
2022-10-25T07:14:20.658Z,18.88
2022-10-25T07:19:24.680Z,18.78
2022-10-25T07:24:26.925Z,18.85
2022-10-25T07:29:32.192Z,19.03
2022-10-25T07:34:46.063Z,19.07
2022-10-25T07:46:42.625Z,19.24
2022-10-25T07:51:45.087Z,19.62
2022-10-25T07:56:47.856Z,19.41
2022-10-25T08:01:51.305Z,19.57
2022-10-25T08:06:53.895Z,19.51
2022-10-25T08:11:58.192Z,19.70
2022-10-25T08:17:17.551Z,19.62
2022-10-25T08:22:28.873Z,19.60
2022-10-25T08:33:51.897Z,19.94
2022-10-25T08:45:49.267Z,20.08
2022-10-25T08:51:07.026Z,20.10
2022-10-25T08:56:26.433Z,20.07
2022-10-25T09:14:53.955Z,20.82
2022-10-25T09:20:02.155Z,21.04
2022-10-25T09:31:27.240Z,20.82
2022-10-25T09:36:33.207Z,21.15
2022-10-25T09:41:37.692Z,21.16
2022-10-25T09:52:22.738Z,21.44
2022-10-25T09:57:28.166Z,21.17
2022-10-25T10:08:59.881Z,20.76
2022-10-25T10:14:16.537Z,20.88
2022-10-25T10:19:21.659Z,21.11
2022-10-25T10:24:27.766Z,21.16
2022-10-25T17:53:13.357Z,17.68
2022-10-25T19:52:56.383Z,17.13
2022-10-25T21:00:02.428Z,16.62
